createdAt,value
2017-10-25T00:01:59.252Z,71.60
2017-10-25T00:04:25.221Z,70.44
2017-10-25T00:06:51.174Z,71.31
2017-10-25T00:09:17.117Z,72.14
2017-10-25T00:11:43.072Z,71.71
2017-10-25T00:14:09.054Z,72.39
2017-10-25T00:16:35.070Z,71.88
2017-10-25T00:19:01.049Z,72.40
2017-10-25T00:21:27.039Z,72.29
2017-10-25T00:23:53.042Z,71.08
2017-10-25T00:26:18.999Z,71.10
2017-10-25T00:28:44.939Z,69.66
2017-10-25T00:31:10.906Z,70.71
2017-10-25T00:33:36.867Z,71.12
2017-10-25T00:36:02.858Z,70.96
2017-10-25T00:38:28.841Z,70.31
2017-10-25T00:40:54.796Z,71.32
2017-10-25T00:43:20.772Z,70.26
2017-10-25T00:45:46.726Z,70.16
2017-10-25T00:48:12.722Z,69.70
2017-10-25T00:50:38.706Z,70.22
2017-10-25T00:53:04.656Z,70.19
2017-10-25T00:55:30.628Z,69.60
2017-10-25T00:57:56.592Z,69.46
2017-10-25T01:00:22.544Z,69.21
2017-10-25T01:02:48.518Z,69.38
2017-10-25T01:05:14.478Z,69.37
2017-10-25T01:07:40.476Z,69.11
2017-10-25T01:10:06.456Z,69.24
2017-10-25T01:12:32.446Z,69.00
2017-10-25T01:14:58.417Z,69.08
2017-10-25T01:17:24.383Z,68.89
2017-10-25T01:19:50.403Z,69.19
2017-10-25T01:22:16.390Z,68.67
2017-10-25T01:24:42.324Z,68.81
2017-10-25T01:27:08.390Z,69.01
2017-10-25T01:29:34.338Z,69.27
2017-10-25T01:32:00.294Z,70.26
2017-10-25T01:34:26.240Z,70.12
2017-10-25T01:36:52.206Z,70.02
2017-10-25T01:39:18.167Z,69.72
2017-10-25T01:41:44.104Z,69.53
2017-10-25T01:44:10.052Z,69.20
2017-10-25T01:46:35.980Z,69.40
2017-10-25T01:49:01.934Z,69.48
2017-10-25T01:51:27.926Z,69.50
2017-10-25T01:53:53.865Z,69.50
2017-10-25T01:56:19.804Z,69.97
2017-10-25T01:58:45.772Z,70.09
2017-10-25T02:01:11.701Z,70.02
2017-10-25T02:03:37.651Z,70.74
2017-10-25T02:06:03.640Z,70.74
2017-10-25T02:08:29.603Z,71.21
2017-10-25T02:10:55.536Z,71.23
2017-10-25T02:13:21.501Z,72.55
2017-10-25T02:15:47.498Z,72.85
2017-10-25T02:18:13.458Z,73.45
2017-10-25T02:20:39.404Z,73.85
2017-10-25T02:23:05.373Z,74.50
2017-10-25T02:25:31.542Z,75.42
2017-10-25T02:27:57.484Z,74.68
2017-10-25T02:30:23.424Z,75.51
2017-10-25T02:32:49.365Z,75.00
2017-10-25T02:35:15.326Z,75.28
2017-10-25T02:37:41.280Z,75.64
2017-10-25T02:40:07.236Z,76.13
2017-10-25T02:42:33.188Z,76.20
2017-10-25T02:44:59.154Z,76.52
2017-10-25T02:47:25.119Z,76.84
2017-10-25T02:49:51.068Z,77.52
2017-10-25T02:52:17.015Z,76.63
2017-10-25T02:54:42.968Z,76.23
2017-10-25T02:57:08.973Z,76.30
2017-10-25T02:59:34.953Z,75.80
2017-10-25T03:02:00.938Z,76.08
2017-10-25T03:04:26.889Z,75.88
2017-10-25T03:06:52.828Z,76.49
2017-10-25T03:09:18.802Z,76.50
2017-10-25T03:11:44.757Z,76.12
2017-10-25T03:14:10.738Z,76.54
2017-10-25T03:16:36.716Z,76.42
2017-10-25T03:19:02.658Z,76.11
2017-10-25T03:21:28.604Z,76.19
2017-10-25T03:23:54.563Z,76.17
2017-10-25T03:26:20.528Z,76.77
2017-10-25T03:28:46.498Z,76.85
2017-10-25T03:31:12.444Z,76.55
2017-10-25T03:33:38.460Z,76.30
2017-10-25T03:36:04.393Z,76.42
2017-10-25T03:38:30.355Z,76.39
2017-10-25T03:40:56.300Z,76.77
2017-10-25T03:43:22.278Z,76.92
2017-10-25T03:45:48.326Z,76.53
2017-10-25T03:48:14.252Z,77.43
2017-10-25T03:50:40.228Z,77.50
2017-10-25T03:53:06.208Z,78.37
2017-10-25T03:55:32.175Z,78.68
2017-10-25T03:57:58.136Z,78.70
2017-10-25T04:00:24.096Z,79.42
2017-10-25T04:02:50.044Z,79.56
2017-10-25T04:05:16.044Z,79.08
2017-10-25T04:07:42.000Z,78.93
2017-10-25T04:10:07.932Z,78.06
2017-10-25T04:12:33.920Z,78.51
2017-10-25T04:14:59.934Z,78.68
2017-10-25T04:17:25.902Z,78.14
2017-10-25T04:19:51.843Z,78.52
2017-10-25T04:22:17.811Z,78.60
2017-10-25T04:24:43.831Z,79.10
2017-10-25T04:27:09.794Z,78.99
2017-10-25T04:29:35.746Z,79.38
2017-10-25T04:32:01.718Z,79.74
2017-10-25T04:34:27.664Z,79.55
2017-10-25T04:36:53.613Z,80.05
2017-10-25T04:39:19.589Z,79.54
2017-10-25T04:41:45.534Z,79.23
2017-10-25T04:44:11.476Z,80.33
2017-10-25T04:46:37.438Z,79.12
2017-10-25T04:49:03.405Z,79.27
2017-10-25T04:51:29.360Z,79.61
2017-10-25T04:53:55.350Z,79.79
2017-10-25T04:56:21.300Z,79.27
2017-10-25T04:58:47.244Z,79.23
2017-10-25T05:01:13.218Z,79.95
2017-10-25T05:03:39.193Z,80.19
2017-10-25T05:06:05.152Z,79.53
2017-10-25T05:08:31.176Z,79.85
2017-10-25T05:10:57.124Z,80.36
2017-10-25T05:13:23.136Z,79.57
2017-10-25T05:15:49.090Z,80.04
2017-10-25T05:18:15.081Z,79.63
2017-10-25T05:20:41.066Z,79.74
2017-10-25T05:23:07.011Z,79.96
2017-10-25T05:25:32.976Z,80.28
2017-10-25T05:27:58.922Z,78.70
2017-10-25T05:30:24.896Z,78.73
2017-10-25T05:32:50.855Z,77.69
2017-10-25T05:35:16.848Z,79.15
2017-10-25T05:37:42.826Z,78.87
2017-10-25T05:40:08.758Z,78.77
2017-10-25T05:42:34.732Z,78.02
2017-10-25T05:45:00.724Z,78.32
2017-10-25T05:47:26.675Z,78.20
2017-10-25T05:49:52.626Z,78.37
2017-10-25T05:52:18.554Z,77.33
2017-10-25T05:54:44.493Z,76.99
2017-10-25T05:57:10.432Z,76.84
2017-10-25T05:59:36.370Z,76.83
2017-10-25T06:02:02.303Z,77.02
2017-10-25T06:04:28.262Z,77.42
2017-10-25T06:06:54.221Z,78.41
2017-10-25T06:09:20.172Z,78.12
2017-10-25T06:11:46.124Z,78.31
2017-10-25T06:14:12.052Z,77.47
2017-10-25T06:16:38.026Z,76.75
2017-10-25T06:19:03.972Z,75.59
2017-10-25T06:21:29.958Z,76.71
2017-10-25T06:23:55.900Z,75.84
2017-10-25T06:26:21.868Z,76.40
2017-10-25T06:28:47.828Z,75.19
2017-10-25T06:31:13.787Z,75.48
2017-10-25T06:33:39.734Z,75.14
2017-10-25T06:36:05.696Z,75.50
2017-10-25T06:38:31.644Z,75.60
2017-10-25T06:40:57.586Z,75.88
2017-10-25T06:43:23.520Z,75.31
2017-10-25T06:45:49.450Z,74.86
2017-10-25T06:48:15.398Z,74.78
2017-10-25T06:50:41.336Z,74.92
2017-10-25T06:53:07.288Z,75.24
2017-10-25T06:55:33.220Z,74.51
2017-10-25T06:57:59.154Z,74.83
2017-10-25T07:00:25.098Z,74.69
2017-10-25T07:02:51.032Z,74.12
2017-10-25T07:05:16.982Z,74.29
2017-10-25T07:07:42.939Z,74.33
2017-10-25T07:10:08.871Z,74.13
2017-10-25T07:12:34.833Z,74.53
2017-10-25T07:15:00.768Z,74.05
2017-10-25T07:17:26.789Z,73.85
2017-10-25T07:19:52.724Z,74.24
2017-10-25T07:22:18.672Z,74.25
2017-10-25T07:24:44.636Z,74.33
2017-10-25T07:27:10.624Z,74.29
2017-10-25T07:29:36.885Z,73.23
2017-10-25T07:32:02.845Z,73.76
2017-10-25T07:34:28.832Z,74.37
2017-10-25T07:36:54.780Z,73.35
2017-10-25T07:39:20.716Z,73.20
2017-10-25T07:41:46.664Z,73.08
2017-10-25T07:44:12.607Z,73.23
2017-10-25T07:46:38.550Z,73.21
2017-10-25T07:49:04.504Z,73.49
2017-10-25T07:51:30.448Z,73.17
2017-10-25T07:53:56.392Z,73.70
2017-10-25T07:56:22.347Z,73.17
2017-10-25T07:58:48.288Z,72.89
2017-10-25T08:01:14.242Z,73.23
2017-10-25T08:03:40.179Z,72.97
2017-10-25T08:06:06.152Z,73.37
2017-10-25T08:08:32.104Z,73.63
2017-10-25T08:10:58.066Z,72.97
2017-10-25T08:13:24.063Z,72.80
2017-10-25T08:15:50.039Z,73.15
2017-10-25T08:18:15.988Z,73.69
2017-10-25T08:20:41.988Z,73.22
2017-10-25T08:23:07.949Z,73.64
2017-10-25T08:25:33.896Z,72.95
2017-10-25T08:27:59.838Z,73.49
2017-10-25T08:30:25.776Z,73.12
2017-10-25T08:32:51.736Z,71.71
2017-10-25T08:35:17.696Z,73.44
2017-10-25T08:37:43.638Z,72.84
2017-10-25T08:40:09.625Z,73.19
2017-10-25T08:42:35.579Z,72.78
2017-10-25T08:45:01.528Z,72.47
2017-10-25T08:47:27.513Z,72.32
2017-10-25T08:49:53.469Z,72.77
2017-10-25T08:52:19.400Z,72.10
2017-10-25T08:54:45.335Z,71.89
2017-10-25T08:57:11.283Z,72.11
2017-10-25T08:59:37.241Z,72.47
2017-10-25T09:02:03.185Z,71.61
2017-10-25T09:04:29.137Z,72.34
2017-10-25T09:06:55.306Z,71.83
2017-10-25T09:09:21.287Z,71.60
2017-10-25T09:11:47.253Z,69.54
2017-10-25T09:14:13.181Z,70.43
2017-10-25T09:16:39.144Z,70.81
2017-10-25T09:19:05.104Z,70.74
2017-10-25T09:21:31.081Z,70.18
2017-10-25T09:23:57.032Z,69.00
2017-10-25T09:26:22.997Z,70.13
2017-10-25T09:28:48.945Z,70.76
2017-10-25T09:31:14.895Z,70.23
2017-10-25T09:33:40.857Z,70.43
2017-10-25T09:36:06.805Z,70.02
2017-10-25T09:38:32.765Z,69.74
2017-10-25T09:40:58.718Z,69.77
2017-10-25T09:43:24.710Z,69.33
2017-10-25T09:45:50.692Z,69.71
2017-10-25T09:48:16.661Z,69.67
2017-10-25T09:50:42.610Z,69.44
2017-10-25T09:53:08.548Z,69.39
2017-10-25T09:55:34.525Z,69.60
2017-10-25T09:58:00.484Z,69.25
2017-10-25T10:00:26.424Z,69.24
2017-10-25T10:02:52.397Z,69.44
2017-10-25T10:05:18.368Z,69.50
2017-10-25T10:07:44.316Z,69.37
2017-10-25T10:10:10.309Z,69.75
2017-10-25T10:12:36.340Z,69.51
2017-10-25T10:15:02.280Z,69.45
2017-10-25T10:17:28.248Z,69.38
2017-10-25T10:19:54.261Z,69.53
2017-10-25T10:22:20.207Z,68.50
2017-10-25T10:24:46.218Z,68.43
2017-10-25T10:27:12.184Z,68.45
2017-10-25T10:29:38.177Z,68.38
2017-10-25T10:32:04.156Z,68.44
2017-10-25T10:34:30.120Z,68.87
2017-10-25T10:36:56.056Z,68.40
2017-10-25T10:39:22.146Z,68.43
2017-10-25T10:41:48.094Z,68.28
2017-10-25T10:44:14.048Z,68.32
2017-10-25T10:46:40.004Z,67.92
2017-10-25T10:49:05.954Z,68.00
2017-10-25T10:51:31.914Z,67.85
2017-10-25T10:53:57.861Z,67.90
2017-10-25T10:56:23.789Z,67.76
2017-10-25T10:58:49.738Z,67.79
2017-10-25T11:01:15.717Z,67.44
2017-10-25T11:03:41.679Z,67.02
2017-10-25T11:06:07.632Z,67.64
2017-10-25T11:08:33.820Z,67.89
2017-10-25T11:10:59.776Z,67.37
2017-10-25T11:13:25.764Z,67.43
2017-10-25T11:15:51.752Z,67.53
2017-10-25T11:18:17.688Z,67.98
2017-10-25T11:20:43.651Z,66.82
2017-10-25T11:23:09.640Z,66.33
2017-10-25T11:25:35.600Z,66.39
2017-10-25T11:28:01.553Z,66.37
2017-10-25T11:30:27.495Z,66.60
2017-10-25T11:32:53.444Z,66.63
2017-10-25T11:35:19.419Z,66.22
2017-10-25T11:37:45.389Z,65.65
2017-10-25T11:40:11.365Z,65.74
2017-10-25T11:42:37.332Z,65.80
2017-10-25T11:45:03.289Z,65.82
2017-10-25T11:47:29.348Z,66.44
2017-10-25T11:49:55.340Z,65.22
2017-10-25T11:52:21.352Z,64.92
2017-10-25T11:54:47.303Z,64.65
2017-10-25T11:57:13.372Z,64.93
2017-10-25T11:59:39.315Z,65.03
2017-10-25T12:02:05.301Z,64.97
2017-10-25T12:04:31.243Z,64.70
2017-10-25T12:06:57.199Z,64.50
2017-10-25T12:09:23.190Z,64.93
2017-10-25T12:11:49.135Z,65.01
2017-10-25T12:14:15.073Z,65.33
2017-10-25T12:16:41.067Z,65.68
2017-10-25T12:19:07.056Z,65.72
2017-10-25T12:21:33.039Z,65.44
2017-10-25T12:23:58.983Z,65.42
2017-10-25T12:26:24.947Z,64.97
2017-10-25T12:28:50.875Z,64.39
2017-10-25T12:31:16.839Z,65.15
2017-10-25T12:33:42.780Z,65.03
2017-10-25T12:36:08.723Z,64.61
2017-10-25T12:38:34.693Z,64.59
2017-10-25T12:41:00.633Z,64.19
2017-10-25T12:43:26.569Z,64.37
2017-10-25T12:45:52.514Z,64.49
2017-10-25T12:48:18.448Z,64.93
2017-10-25T12:50:44.400Z,64.62
2017-10-25T12:53:10.352Z,64.65
2017-10-25T12:55:36.331Z,64.57
2017-10-25T12:58:02.272Z,64.19
2017-10-25T13:00:28.251Z,64.00
2017-10-25T13:02:54.209Z,64.10
2017-10-25T13:05:20.165Z,64.04
2017-10-25T13:07:46.116Z,63.19
2017-10-25T13:10:12.068Z,63.98
2017-10-25T13:12:38.028Z,63.65
2017-10-25T13:15:03.997Z,64.29
2017-10-25T13:17:29.974Z,64.56
2017-10-25T13:19:55.941Z,64.64
2017-10-25T13:22:21.882Z,64.72
2017-10-25T13:24:47.836Z,64.38
2017-10-25T13:27:13.795Z,64.17
2017-10-25T13:29:39.801Z,63.98
2017-10-25T13:32:05.745Z,64.25
2017-10-25T13:34:31.743Z,64.11
2017-10-25T13:36:57.755Z,63.65
2017-10-25T13:39:23.731Z,64.00
2017-10-25T13:41:49.762Z,64.15
2017-10-25T13:44:15.714Z,63.99
2017-10-25T13:46:41.646Z,64.23
2017-10-25T13:49:07.601Z,63.86
2017-10-25T13:51:33.545Z,63.14
2017-10-25T13:53:59.495Z,63.07
2017-10-25T13:56:25.464Z,63.86
2017-10-25T13:58:51.459Z,63.81
2017-10-25T14:01:17.390Z,64.07
2017-10-25T14:03:43.316Z,63.63
2017-10-25T14:06:09.247Z,63.86
2017-10-25T14:08:35.183Z,63.90
2017-10-25T14:11:01.178Z,64.05
2017-10-25T14:13:27.159Z,63.81
2017-10-25T14:15:53.101Z,63.93
2017-10-25T14:18:19.063Z,64.30
2017-10-25T14:20:45.025Z,63.86
2017-10-25T14:23:10.969Z,63.38
2017-10-25T14:25:36.931Z,64.01
2017-10-25T14:28:02.899Z,63.50
2017-10-25T14:30:28.873Z,64.06
2017-10-25T14:32:54.822Z,64.12
2017-10-25T14:35:20.767Z,64.53
2017-10-25T14:37:46.723Z,64.17
2017-10-25T14:40:12.695Z,63.69
2017-10-25T14:42:38.667Z,64.30
2017-10-25T14:45:04.620Z,63.37
2017-10-25T14:47:30.573Z,63.66
2017-10-25T14:49:56.513Z,64.10
2017-10-25T14:52:22.464Z,63.72
2017-10-25T14:54:48.419Z,63.77
2017-10-25T14:57:14.381Z,63.86
2017-10-25T14:59:40.404Z,64.91
2017-10-25T15:02:06.356Z,64.17
2017-10-25T15:04:32.291Z,63.80
2017-10-25T15:06:58.269Z,64.65
2017-10-25T15:09:24.214Z,64.03
2017-10-25T15:11:50.198Z,64.89
2017-10-25T15:14:16.151Z,64.72
2017-10-25T15:16:42.102Z,64.25
2017-10-25T15:19:08.064Z,63.90
2017-10-25T15:21:34.017Z,64.29
2017-10-25T15:24:00.012Z,64.18
2017-10-25T15:26:25.976Z,64.53
2017-10-25T15:28:52.019Z,64.63
2017-10-25T15:31:17.971Z,64.69
2017-10-25T15:33:43.944Z,65.08
2017-10-25T15:36:09.904Z,65.21
2017-10-25T15:38:35.908Z,65.40
2017-10-25T15:41:01.884Z,65.54
2017-10-25T15:43:27.882Z,65.35
2017-10-25T15:45:53.846Z,65.47
2017-10-25T15:48:19.799Z,65.54
2017-10-25T15:50:45.768Z,65.92
2017-10-25T15:53:11.969Z,65.57
2017-10-25T15:55:37.932Z,65.59
2017-10-25T15:58:03.896Z,65.63
2017-10-25T16:00:29.848Z,65.69
2017-10-25T16:02:55.863Z,65.84
2017-10-25T16:05:21.842Z,65.74
2017-10-25T16:07:47.824Z,65.66
2017-10-25T16:10:13.827Z,65.51
2017-10-25T16:12:39.783Z,65.92
2017-10-25T16:15:05.735Z,65.62
2017-10-25T16:17:31.695Z,65.86
2017-10-25T16:19:57.723Z,66.16
2017-10-25T16:22:25.534Z,66.07
2017-10-25T16:24:51.584Z,66.31
2017-10-25T16:27:17.577Z,66.27
2017-10-25T16:29:43.518Z,66.07
2017-10-25T16:32:09.454Z,66.36
2017-10-25T16:34:35.424Z,66.47
2017-10-25T16:37:01.392Z,66.54
2017-10-25T16:39:27.340Z,66.44
2017-10-25T16:41:53.304Z,66.46
2017-10-25T16:44:19.251Z,66.58
2017-10-25T16:46:45.217Z,66.33
2017-10-25T16:49:11.191Z,66.43
2017-10-25T16:51:37.145Z,66.51
2017-10-25T16:54:03.106Z,66.21
2017-10-25T16:56:29.071Z,66.34
2017-10-25T16:58:55.030Z,66.40
2017-10-25T17:01:20.984Z,66.51
2017-10-25T17:03:47.036Z,66.26
2017-10-25T17:06:13.002Z,66.15
2017-10-25T17:08:38.966Z,65.84
2017-10-25T17:11:04.966Z,65.92
2017-10-25T17:13:30.915Z,66.00
2017-10-25T17:15:56.868Z,66.10
2017-10-25T17:18:22.834Z,65.96
2017-10-25T17:20:48.812Z,65.98
2017-10-25T17:23:14.836Z,66.22
2017-10-25T17:25:40.787Z,66.02
2017-10-25T17:28:06.756Z,65.95
2017-10-25T17:30:32.704Z,65.89
2017-10-25T17:32:58.666Z,65.85
2017-10-25T17:35:24.631Z,65.79
2017-10-25T17:37:50.612Z,65.64
2017-10-25T17:40:16.578Z,65.75
2017-10-25T17:42:42.522Z,65.55
2017-10-25T17:45:08.506Z,65.81
2017-10-25T17:47:34.498Z,65.91
2017-10-25T17:50:00.600Z,65.88
2017-10-25T17:52:26.568Z,65.46
2017-10-25T17:54:52.560Z,65.52
2017-10-25T17:57:18.576Z,65.79
2017-10-25T17:59:44.596Z,65.45
2017-10-25T18:02:10.579Z,65.50
2017-10-25T18:04:36.556Z,65.56
2017-10-25T18:07:02.514Z,65.32
2017-10-25T18:09:28.478Z,65.29
2017-10-25T18:11:54.420Z,65.59
2017-10-25T18:14:20.692Z,65.43
2017-10-25T18:16:46.698Z,65.12
2017-10-25T18:19:12.704Z,65.55
2017-10-25T18:21:38.668Z,65.52
2017-10-25T18:24:04.634Z,65.31
2017-10-25T18:26:30.647Z,65.37
2017-10-25T18:28:56.580Z,64.82
2017-10-25T18:31:22.512Z,65.22
2017-10-25T18:33:48.502Z,64.90
2017-10-25T18:36:14.453Z,64.88
2017-10-25T18:38:40.476Z,64.74
2017-10-25T18:41:06.486Z,64.55
2017-10-25T18:43:32.538Z,64.98
2017-10-25T18:48:34.451Z,65.35
2017-10-25T18:51:00.460Z,64.90
2017-10-25T18:53:26.445Z,65.14
2017-10-25T18:55:52.528Z,65.26
2017-10-25T18:58:18.554Z,65.33
2017-10-25T19:00:44.659Z,65.58
2017-10-25T19:03:10.666Z,66.18
2017-10-25T19:05:36.644Z,66.44
2017-10-25T19:08:02.611Z,66.59
2017-10-25T19:10:28.570Z,66.64
2017-10-25T19:12:54.623Z,66.46
2017-10-25T19:15:20.608Z,67.12
2017-10-25T19:17:46.606Z,67.24
2017-10-25T19:20:12.574Z,67.71
2017-10-25T19:22:38.633Z,67.96
2017-10-25T19:25:04.627Z,68.59
2017-10-25T19:27:30.646Z,68.52
2017-10-25T19:29:56.621Z,68.67
2017-10-25T19:32:22.741Z,68.52
2017-10-25T19:34:50.727Z,68.60
2017-10-25T19:37:16.763Z,68.73
2017-10-25T19:39:42.709Z,68.59
2017-10-25T19:42:08.685Z,68.75
2017-10-25T19:44:34.678Z,69.04
2017-10-25T19:47:00.632Z,69.40
2017-10-25T19:49:26.636Z,69.22
2017-10-25T19:51:52.572Z,69.08
2017-10-25T19:54:18.530Z,69.10
2017-10-25T19:56:44.488Z,69.57
2017-10-25T19:59:10.618Z,70.07
2017-10-25T20:01:36.573Z,69.98
2017-10-25T20:04:02.563Z,69.84
2017-10-25T20:06:28.553Z,69.44
2017-10-25T20:08:54.512Z,69.85
2017-10-25T20:11:20.515Z,70.08
2017-10-25T20:13:46.526Z,70.31
2017-10-25T20:16:12.496Z,69.97
2017-10-25T20:18:38.433Z,69.90
2017-10-25T20:21:04.380Z,69.82
2017-10-25T20:23:30.372Z,70.09
2017-10-25T20:25:56.363Z,69.78
2017-10-25T20:28:22.354Z,69.64
2017-10-25T20:30:48.324Z,69.66
2017-10-25T20:33:14.500Z,69.68
2017-10-25T20:35:40.467Z,69.52
2017-10-25T20:38:06.459Z,69.41
2017-10-25T20:40:32.407Z,69.44
2017-10-25T20:42:58.409Z,69.21
2017-10-25T20:45:24.363Z,69.11
2017-10-25T20:47:50.300Z,69.23
2017-10-25T20:50:16.318Z,69.36
2017-10-25T20:52:42.284Z,69.19
2017-10-25T20:55:08.262Z,69.06
2017-10-25T20:57:34.230Z,68.88
2017-10-25T21:00:00.192Z,69.50
2017-10-25T21:02:26.144Z,69.20
2017-10-25T21:04:52.123Z,69.55
2017-10-25T21:07:18.083Z,69.28
2017-10-25T21:09:44.058Z,69.05
2017-10-25T21:12:10.000Z,68.99
2017-10-25T21:14:35.969Z,68.89
2017-10-25T21:17:01.902Z,68.63
2017-10-25T21:19:27.864Z,68.71
2017-10-25T21:21:53.847Z,68.64
2017-10-25T21:24:20.593Z,68.39
2017-10-25T21:26:46.855Z,68.28
2017-10-25T21:29:12.790Z,68.26
2017-10-25T21:31:38.767Z,68.65
2017-10-25T21:34:04.751Z,69.12
2017-10-25T21:36:30.712Z,69.47
2017-10-25T21:38:56.711Z,69.76
2017-10-25T21:41:22.656Z,70.06
2017-10-25T21:43:48.614Z,70.28
2017-10-25T21:46:14.610Z,70.79
2017-10-25T21:48:40.555Z,70.62
2017-10-25T21:51:06.554Z,70.54
2017-10-25T21:53:32.546Z,70.58
2017-10-25T21:55:58.622Z,70.76
2017-10-25T21:58:24.548Z,70.64
2017-10-25T22:00:50.504Z,70.10
2017-10-25T22:03:16.469Z,70.17
2017-10-25T22:05:42.406Z,70.16
2017-10-25T22:08:08.369Z,69.98
2017-10-25T22:10:34.310Z,70.29
2017-10-25T22:13:00.286Z,70.31
2017-10-25T22:15:26.242Z,69.98
2017-10-25T22:17:52.226Z,70.12
2017-10-25T22:20:18.236Z,70.02
2017-10-25T22:22:44.196Z,70.15
2017-10-25T22:25:10.164Z,69.57
2017-10-25T22:27:36.116Z,70.13
2017-10-25T22:30:02.072Z,70.16
2017-10-25T22:32:28.016Z,70.33
2017-10-25T22:34:54.024Z,69.92
2017-10-25T22:37:19.984Z,69.86
2017-10-25T22:39:45.927Z,69.75
2017-10-25T22:42:11.868Z,69.69
2017-10-25T22:44:37.873Z,70.00
2017-10-25T22:47:03.828Z,70.40
2017-10-25T22:49:29.808Z,70.36
2017-10-25T22:51:55.818Z,70.92
2017-10-25T22:54:21.822Z,70.36
2017-10-25T22:56:47.781Z,70.45
2017-10-25T22:59:13.726Z,70.57
2017-10-25T23:01:39.669Z,70.31
2017-10-25T23:04:05.600Z,69.91
2017-10-25T23:06:31.620Z,70.20
2017-10-25T23:08:57.592Z,70.04
2017-10-25T23:11:23.561Z,70.60
2017-10-25T23:13:49.500Z,70.15
2017-10-25T23:16:15.468Z,69.86
2017-10-25T23:18:41.430Z,70.20
2017-10-25T23:21:07.384Z,70.35
2017-10-25T23:23:33.325Z,70.86
2017-10-25T23:25:59.272Z,70.74
2017-10-25T23:28:25.216Z,70.94
2017-10-25T23:30:51.199Z,70.69
2017-10-25T23:33:17.369Z,70.46
2017-10-25T23:35:43.304Z,70.93
2017-10-25T23:38:09.270Z,71.64
2017-10-25T23:40:35.248Z,71.76
2017-10-25T23:43:01.205Z,71.95
2017-10-25T23:45:27.154Z,71.82
2017-10-25T23:47:53.091Z,72.03
2017-10-25T23:50:19.066Z,72.01
2017-10-25T23:52:45.040Z,71.53
2017-10-25T23:55:10.972Z,71.85
2017-10-25T23:57:36.934Z,71.60
